sensor_id;sensor_type;location;lat;lon;timestamp;P1;durP1;ratioP1;P2;durP2;ratioP2
61471;SDS011;47337;54.068;12.114;2023-02-03T00:01:16;8.85;;;2.35;;
61471;SDS011;47337;54.068;12.114;2023-02-03T00:03:42;6.30;;;2.40;;
61471;SDS011;47337;54.068;12.114;2023-02-03T00:06:07;7.88;;;2.70;;
61471;SDS011;47337;54.068;12.114;2023-02-03T00:08:33;4.47;;;2.22;;
61471;SDS011;47337;54.068;12.114;2023-02-03T00:11:02;5.13;;;2.35;;
61471;SDS011;47337;54.068;12.114;2023-02-03T00:13:28;6.38;;;2.53;;
61471;SDS011;47337;54.068;12.114;2023-02-03T00:15:53;14.70;;;2.95;;
61471;SDS011;47337;54.068;12.114;2023-02-03T00:18:19;6.10;;;2.72;;
61471;SDS011;47337;54.068;12.114;2023-02-03T00:20:45;11.88;;;3.40;;
61471;SDS011;47337;54.068;12.114;2023-02-03T00:23:10;9.43;;;3.50;;
61471;SDS011;47337;54.068;12.114;2023-02-03T00:25:36;12.55;;;4.05;;
61471;SDS011;47337;54.068;12.114;2023-02-03T00:28:03;9.55;;;3.80;;
61471;SDS011;47337;54.068;12.114;2023-02-03T00:30:29;8.43;;;2.90;;
61471;SDS011;47337;54.068;12.114;2023-02-03T00:32:55;17.65;;;4.25;;
61471;SDS011;47337;54.068;12.114;2023-02-03T00:35:21;12.00;;;3.75;;
61471;SDS011;47337;54.068;12.114;2023-02-03T00:37:50;11.43;;;3.92;;
61471;SDS011;47337;54.068;12.114;2023-02-03T00:40:17;7.05;;;3.20;;
61471;SDS011;47337;54.068;12.114;2023-02-03T00:42:43;6.53;;;3.10;;
61471;SDS011;47337;54.068;12.114;2023-02-03T00:45:09;9.68;;;3.10;;
61471;SDS011;47337;54.068;12.114;2023-02-03T00:47:36;7.22;;;4.07;;
61471;SDS011;47337;54.068;12.114;2023-02-03T00:50:03;6.35;;;3.50;;
61471;SDS011;47337;54.068;12.114;2023-02-03T00:52:30;5.43;;;3.25;;
61471;SDS011;47337;54.068;12.114;2023-02-03T00:54:55;8.30;;;3.20;;
61471;SDS011;47337;54.068;12.114;2023-02-03T00:57:21;7.60;;;4.15;;
61471;SDS011;47337;54.068;12.114;2023-02-03T00:59:48;5.80;;;3.08;;
61471;SDS011;47337;54.068;12.114;2023-02-03T01:02:13;6.00;;;3.15;;
61471;SDS011;47337;54.068;12.114;2023-02-03T01:04:42;10.13;;;3.63;;
61471;SDS011;47337;54.068;12.114;2023-02-03T01:07:08;7.95;;;2.63;;
61471;SDS011;47337;54.068;12.114;2023-02-03T01:09:34;3.88;;;2.50;;
61471;SDS011;47337;54.068;12.114;2023-02-03T01:12:01;4.80;;;2.63;;
61471;SDS011;47337;54.068;12.114;2023-02-03T01:14:27;4.03;;;2.35;;
61471;SDS011;47337;54.068;12.114;2023-02-03T01:16:53;6.43;;;2.90;;
61471;SDS011;47337;54.068;12.114;2023-02-03T01:19:18;3.63;;;2.20;;
61471;SDS011;47337;54.068;12.114;2023-02-03T01:21:43;5.13;;;2.80;;
61471;SDS011;47337;54.068;12.114;2023-02-03T01:24:09;5.88;;;2.80;;
61471;SDS011;47337;54.068;12.114;2023-02-03T01:26:34;3.72;;;2.05;;
61471;SDS011;47337;54.068;12.114;2023-02-03T01:29:00;5.03;;;2.38;;
61471;SDS011;47337;54.068;12.114;2023-02-03T01:31:27;2.42;;;1.70;;
61471;SDS011;47337;54.068;12.114;2023-02-03T01:33:54;5.38;;;2.10;;
61471;SDS011;47337;54.068;12.114;2023-02-03T01:36:21;3.15;;;1.85;;
61471;SDS011;47337;54.068;12.114;2023-02-03T01:38:48;2.72;;;1.75;;
61471;SDS011;47337;54.068;12.114;2023-02-03T01:41:18;2.58;;;1.80;;
61471;SDS011;47337;54.068;12.114;2023-02-03T01:43:49;4.57;;;1.80;;
61471;SDS011;47337;54.068;12.114;2023-02-03T01:46:36;3.05;;;1.77;;
61471;SDS011;47337;54.068;12.114;2023-02-03T01:51:36;2.92;;;1.77;;
61471;SDS011;47337;54.068;12.114;2023-02-03T01:54:11;3.10;;;1.92;;
61471;SDS011;47337;54.068;12.114;2023-02-03T01:56:39;3.72;;;1.98;;
61471;SDS011;47337;54.068;12.114;2023-02-03T01:59:08;3.85;;;1.70;;
61471;SDS011;47337;54.068;12.114;2023-02-03T02:01:33;3.22;;;1.95;;
61471;SDS011;47337;54.068;12.114;2023-02-03T02:04:02;4.25;;;1.77;;
61471;SDS011;47337;54.068;12.114;2023-02-03T02:06:29;6.82;;;2.05;;
61471;SDS011;47337;54.068;12.114;2023-02-03T02:08:57;4.40;;;1.55;;
61471;SDS011;47337;54.068;12.114;2023-02-03T02:11:27;5.85;;;1.77;;
61471;SDS011;47337;54.068;12.114;2023-02-03T02:13:53;2.63;;;1.30;;
61471;SDS011;47337;54.068;12.114;2023-02-03T02:22:32;3.95;;;1.60;;
61471;SDS011;47337;54.068;12.114;2023-02-03T02:25:27;4.30;;;1.38;;
61471;SDS011;47337;54.068;12.114;2023-02-03T02:33:57;2.53;;;1.30;;
61471;SDS011;47337;54.068;12.114;2023-02-03T02:36:34;2.25;;;1.00;;
61471;SDS011;47337;54.068;12.114;2023-02-03T02:39:19;1.88;;;1.17;;
61471;SDS011;47337;54.068;12.114;2023-02-03T02:42:17;2.35;;;1.10;;
61471;SDS011;47337;54.068;12.114;2023-02-03T02:44:47;1.60;;;1.00;;
61471;SDS011;47337;54.068;12.114;2023-02-03T02:47:19;2.00;;;1.10;;
61471;SDS011;47337;54.068;12.114;2023-02-03T02:49:51;1.60;;;1.00;;
61471;SDS011;47337;54.068;12.114;2023-02-03T02:52:23;3.17;;;1.50;;
61471;SDS011;47337;54.068;12.114;2023-02-03T02:54:52;2.17;;;1.52;;
61471;SDS011;47337;54.068;12.114;2023-02-03T02:57:22;2.40;;;1.40;;
61471;SDS011;47337;54.068;12.114;2023-02-03T02:59:50;1.88;;;1.35;;
61471;SDS011;47337;54.068;12.114;2023-02-03T03:02:17;3.78;;;1.60;;
61471;SDS011;47337;54.068;12.114;2023-02-03T03:04:43;6.82;;;2.00;;
61471;SDS011;47337;54.068;12.114;2023-02-03T03:07:18;7.68;;;2.78;;
61471;SDS011;47337;54.068;12.114;2023-02-03T03:09:52;3.47;;;2.35;;
61471;SDS011;47337;54.068;12.114;2023-02-03T03:12:44;3.88;;;2.20;;
61471;SDS011;47337;54.068;12.114;2023-02-03T03:15:18;4.57;;;2.28;;
61471;SDS011;47337;54.068;12.114;2023-02-03T03:18:08;4.07;;;2.50;;
61471;SDS011;47337;54.068;12.114;2023-02-03T03:20:34;3.63;;;2.70;;
61471;SDS011;47337;54.068;12.114;2023-02-03T03:23:02;4.07;;;2.67;;
61471;SDS011;47337;54.068;12.114;2023-02-03T03:25:43;4.13;;;2.33;;
61471;SDS011;47337;54.068;12.114;2023-02-03T03:28:15;5.13;;;2.70;;
61471;SDS011;47337;54.068;12.114;2023-02-03T03:30:45;5.00;;;2.55;;
61471;SDS011;47337;54.068;12.114;2023-02-03T03:33:10;5.28;;;2.80;;
61471;SDS011;47337;54.068;12.114;2023-02-03T03:38:10;6.47;;;3.65;;
61471;SDS011;47337;54.068;12.114;2023-02-03T03:40:45;6.03;;;3.22;;
61471;SDS011;47337;54.068;12.114;2023-02-03T03:43:16;5.30;;;3.10;;
61471;SDS011;47337;54.068;12.114;2023-02-03T03:45:52;6.22;;;3.00;;
61471;SDS011;47337;54.068;12.114;2023-02-03T03:48:25;9.63;;;3.85;;
61471;SDS011;47337;54.068;12.114;2023-02-03T03:50:56;7.78;;;3.72;;
61471;SDS011;47337;54.068;12.114;2023-02-03T03:53:28;7.57;;;3.78;;
61471;SDS011;47337;54.068;12.114;2023-02-03T03:55:57;8.50;;;4.15;;
61471;SDS011;47337;54.068;12.114;2023-02-03T03:58:27;8.50;;;4.40;;
61471;SDS011;47337;54.068;12.114;2023-02-03T04:00:56;7.22;;;4.47;;
61471;SDS011;47337;54.068;12.114;2023-02-03T04:06:24;9.60;;;5.30;;
61471;SDS011;47337;54.068;12.114;2023-02-03T04:08:49;10.90;;;5.88;;
61471;SDS011;47337;54.068;12.114;2023-02-03T04:11:15;11.23;;;5.82;;
61471;SDS011;47337;54.068;12.114;2023-02-03T04:14:00;13.02;;;5.60;;
61471;SDS011;47337;54.068;12.114;2023-02-03T04:16:26;12.85;;;6.53;;
61471;SDS011;47337;54.068;12.114;2023-02-03T04:18:51;13.25;;;6.25;;
61471;SDS011;47337;54.068;12.114;2023-02-03T04:21:17;12.90;;;6.18;;
61471;SDS011;47337;54.068;12.114;2023-02-03T04:23:42;14.95;;;6.20;;
61471;SDS011;47337;54.068;12.114;2023-02-03T04:26:07;16.20;;;6.43;;
61471;SDS011;47337;54.068;12.114;2023-02-03T04:28:33;16.05;;;6.75;;
61471;SDS011;47337;54.068;12.114;2023-02-03T04:31:00;13.07;;;7.05;;
61471;SDS011;47337;54.068;12.114;2023-02-03T04:33:26;16.83;;;6.85;;
61471;SDS011;47337;54.068;12.114;2023-02-03T04:35:51;21.05;;;7.45;;
61471;SDS011;47337;54.068;12.114;2023-02-03T04:38:19;17.88;;;7.60;;
61471;SDS011;47337;54.068;12.114;2023-02-03T04:40:45;18.15;;;7.03;;
61471;SDS011;47337;54.068;12.114;2023-02-03T04:43:10;15.45;;;7.57;;
61471;SDS011;47337;54.068;12.114;2023-02-03T04:45:39;22.13;;;7.05;;
61471;SDS011;47337;54.068;12.114;2023-02-03T04:48:04;17.02;;;6.35;;
61471;SDS011;47337;54.068;12.114;2023-02-03T04:50:30;15.05;;;5.93;;
61471;SDS011;47337;54.068;12.114;2023-02-03T04:52:55;18.67;;;5.43;;
61471;SDS011;47337;54.068;12.114;2023-02-03T04:55:24;15.27;;;5.70;;
61471;SDS011;47337;54.068;12.114;2023-02-03T04:57:55;19.80;;;5.55;;
61471;SDS011;47337;54.068;12.114;2023-02-03T05:00:21;18.23;;;5.65;;
61471;SDS011;47337;54.068;12.114;2023-02-03T05:02:46;15.00;;;4.88;;
61471;SDS011;47337;54.068;12.114;2023-02-03T05:05:11;11.65;;;4.03;;
61471;SDS011;47337;54.068;12.114;2023-02-03T05:07:37;21.23;;;5.07;;
61471;SDS011;47337;54.068;12.114;2023-02-03T05:10:02;12.25;;;3.95;;
61471;SDS011;47337;54.068;12.114;2023-02-03T05:12:28;15.25;;;4.40;;
61471;SDS011;47337;54.068;12.114;2023-02-03T05:14:53;9.60;;;3.53;;
61471;SDS011;47337;54.068;12.114;2023-02-03T05:17:23;10.85;;;3.55;;
61471;SDS011;47337;54.068;12.114;2023-02-03T05:19:49;11.50;;;2.90;;
61471;SDS011;47337;54.068;12.114;2023-02-03T05:22:14;6.20;;;2.40;;
61471;SDS011;47337;54.068;12.114;2023-02-03T05:24:42;9.60;;;3.20;;
61471;SDS011;47337;54.068;12.114;2023-02-03T05:27:07;5.03;;;2.28;;
61471;SDS011;47337;54.068;12.114;2023-02-03T05:29:32;7.25;;;2.42;;
61471;SDS011;47337;54.068;12.114;2023-02-03T05:32:00;9.05;;;2.40;;
61471;SDS011;47337;54.068;12.114;2023-02-03T05:34:28;11.55;;;2.45;;
61471;SDS011;47337;54.068;12.114;2023-02-03T05:36:54;11.10;;;2.60;;
61471;SDS011;47337;54.068;12.114;2023-02-03T05:39:19;12.43;;;3.72;;
61471;SDS011;47337;54.068;12.114;2023-02-03T05:41:44;8.55;;;2.45;;
61471;SDS011;47337;54.068;12.114;2023-02-03T05:44:16;8.38;;;3.53;;
61471;SDS011;47337;54.068;12.114;2023-02-03T05:46:41;9.60;;;2.85;;
61471;SDS011;47337;54.068;12.114;2023-02-03T05:49:07;9.95;;;2.92;;
61471;SDS011;47337;54.068;12.114;2023-02-03T05:51:32;4.85;;;2.72;;
61471;SDS011;47337;54.068;12.114;2023-02-03T05:53:58;9.82;;;2.75;;
61471;SDS011;47337;54.068;12.114;2023-02-03T05:56:23;13.00;;;3.53;;
61471;SDS011;47337;54.068;12.114;2023-02-03T05:58:49;7.50;;;2.60;;
61471;SDS011;47337;54.068;12.114;2023-02-03T06:01:17;9.60;;;2.47;;
61471;SDS011;47337;54.068;12.114;2023-02-03T06:03:43;15.77;;;2.78;;
61471;SDS011;47337;54.068;12.114;2023-02-03T06:06:09;8.30;;;2.55;;
61471;SDS011;47337;54.068;12.114;2023-02-03T06:08:35;6.40;;;2.00;;
61471;SDS011;47337;54.068;12.114;2023-02-03T06:11:00;5.63;;;2.28;;
61471;SDS011;47337;54.068;12.114;2023-02-03T06:13:26;5.25;;;2.40;;
61471;SDS011;47337;54.068;12.114;2023-02-03T06:15:51;6.20;;;2.17;;
61471;SDS011;47337;54.068;12.114;2023-02-03T06:18:17;5.18;;;1.90;;
61471;SDS011;47337;54.068;12.114;2023-02-03T06:20:44;5.60;;;1.80;;
61471;SDS011;47337;54.068;12.114;2023-02-03T06:23:13;5.07;;;1.48;;
61471;SDS011;47337;54.068;12.114;2023-02-03T06:25:42;4.65;;;1.35;;
61471;SDS011;47337;54.068;12.114;2023-02-03T06:28:11;2.08;;;1.40;;
61471;SDS011;47337;54.068;12.114;2023-02-03T06:30:36;6.05;;;1.40;;
61471;SDS011;47337;54.068;12.114;2023-02-03T06:33:02;6.38;;;1.30;;
61471;SDS011;47337;54.068;12.114;2023-02-03T06:35:27;4.10;;;1.30;;
61471;SDS011;47337;54.068;12.114;2023-02-03T06:37:53;4.13;;;1.20;;
61471;SDS011;47337;54.068;12.114;2023-02-03T06:40:18;2.65;;;1.05;;
61471;SDS011;47337;54.068;12.114;2023-02-03T06:42:44;6.88;;;1.83;;
61471;SDS011;47337;54.068;12.114;2023-02-03T06:45:11;2.42;;;1.50;;
61471;SDS011;47337;54.068;12.114;2023-02-03T06:47:40;3.13;;;1.60;;
61471;SDS011;47337;54.068;12.114;2023-02-03T06:50:07;4.75;;;1.55;;
61471;SDS011;47337;54.068;12.114;2023-02-03T06:52:33;4.13;;;1.33;;
61471;SDS011;47337;54.068;12.114;2023-02-03T06:55:01;3.65;;;1.48;;
61471;SDS011;47337;54.068;12.114;2023-02-03T06:57:27;7.13;;;1.60;;
61471;SDS011;47337;54.068;12.114;2023-02-03T06:59:53;2.03;;;1.20;;
61471;SDS011;47337;54.068;12.114;2023-02-03T07:02:20;2.92;;;1.30;;
61471;SDS011;47337;54.068;12.114;2023-02-03T07:04:46;3.13;;;1.10;;
61471;SDS011;47337;54.068;12.114;2023-02-03T07:07:11;2.28;;;1.10;;
61471;SDS011;47337;54.068;12.114;2023-02-03T07:09:37;3.60;;;1.08;;
61471;SDS011;47337;54.068;12.114;2023-02-03T07:12:04;3.35;;;1.15;;
61471;SDS011;47337;54.068;12.114;2023-02-03T07:14:30;2.97;;;1.05;;
61471;SDS011;47337;54.068;12.114;2023-02-03T07:16:55;3.38;;;1.35;;
61471;SDS011;47337;54.068;12.114;2023-02-03T07:19:23;4.63;;;1.50;;
61471;SDS011;47337;54.068;12.114;2023-02-03T07:21:49;4.63;;;2.20;;
61471;SDS011;47337;54.068;12.114;2023-02-03T07:24:19;4.35;;;1.45;;
61471;SDS011;47337;54.068;12.114;2023-02-03T07:26:44;3.47;;;1.30;;
61471;SDS011;47337;54.068;12.114;2023-02-03T07:29:09;3.00;;;1.25;;
61471;SDS011;47337;54.068;12.114;2023-02-03T07:31:35;4.10;;;1.30;;
61471;SDS011;47337;54.068;12.114;2023-02-03T07:34:03;3.30;;;1.30;;
61471;SDS011;47337;54.068;12.114;2023-02-03T07:36:31;3.67;;;1.10;;
61471;SDS011;47337;54.068;12.114;2023-02-03T07:38:57;4.57;;;1.40;;
61471;SDS011;47337;54.068;12.114;2023-02-03T07:41:22;2.83;;;1.20;;
61471;SDS011;47337;54.068;12.114;2023-02-03T07:43:48;2.70;;;0.85;;
61471;SDS011;47337;54.068;12.114;2023-02-03T07:46:13;5.05;;;1.13;;
61471;SDS011;47337;54.068;12.114;2023-02-03T07:48:39;4.78;;;1.10;;
61471;SDS011;47337;54.068;12.114;2023-02-03T07:51:06;2.17;;;1.10;;
61471;SDS011;47337;54.068;12.114;2023-02-03T07:53:32;7.22;;;1.00;;
61471;SDS011;47337;54.068;12.114;2023-02-03T07:56:00;5.30;;;1.20;;
61471;SDS011;47337;54.068;12.114;2023-02-03T07:58:30;4.25;;;1.35;;
61471;SDS011;47337;54.068;12.114;2023-02-03T08:00:56;3.67;;;1.00;;
61471;SDS011;47337;54.068;12.114;2023-02-03T08:03:22;3.42;;;0.80;;
61471;SDS011;47337;54.068;12.114;2023-02-03T08:05:47;3.53;;;1.20;;
61471;SDS011;47337;54.068;12.114;2023-02-03T08:08:13;3.38;;;1.30;;
61471;SDS011;47337;54.068;12.114;2023-02-03T08:10:38;3.67;;;1.65;;
61471;SDS011;47337;54.068;12.114;2023-02-03T08:13:04;3.63;;;1.00;;
61471;SDS011;47337;54.068;12.114;2023-02-03T08:15:29;5.22;;;1.10;;
61471;SDS011;47337;54.068;12.114;2023-02-03T08:17:54;5.65;;;1.60;;
61471;SDS011;47337;54.068;12.114;2023-02-03T08:20:20;3.72;;;1.33;;
61471;SDS011;47337;54.068;12.114;2023-02-03T08:22:45;5.53;;;1.20;;
61471;SDS011;47337;54.068;12.114;2023-02-03T08:25:11;9.00;;;1.50;;
61471;SDS011;47337;54.068;12.114;2023-02-03T08:27:37;8.25;;;1.38;;
61471;SDS011;47337;54.068;12.114;2023-02-03T08:30:03;6.45;;;1.60;;
61471;SDS011;47337;54.068;12.114;2023-02-03T08:32:29;15.13;;;2.17;;
61471;SDS011;47337;54.068;12.114;2023-02-03T08:34:56;7.65;;;2.08;;
61471;SDS011;47337;54.068;12.114;2023-02-03T08:37:22;15.90;;;2.08;;
61471;SDS011;47337;54.068;12.114;2023-02-03T08:39:52;10.13;;;2.20;;
61471;SDS011;47337;54.068;12.114;2023-02-03T08:42:20;12.32;;;2.33;;
61471;SDS011;47337;54.068;12.114;2023-02-03T08:44:45;17.10;;;2.38;;
61471;SDS011;47337;54.068;12.114;2023-02-03T08:47:12;13.02;;;2.58;;
61471;SDS011;47337;54.068;12.114;2023-02-03T08:49:38;6.25;;;2.20;;
61471;SDS011;47337;54.068;12.114;2023-02-03T08:52:04;17.08;;;3.10;;
61471;SDS011;47337;54.068;12.114;2023-02-03T08:54:31;15.38;;;2.83;;
61471;SDS011;47337;54.068;12.114;2023-02-03T08:56:59;17.55;;;3.17;;
61471;SDS011;47337;54.068;12.114;2023-02-03T08:59:25;16.48;;;3.05;;
61471;SDS011;47337;54.068;12.114;2023-02-03T09:01:50;17.00;;;3.25;;
61471;SDS011;47337;54.068;12.114;2023-02-03T09:04:17;12.93;;;2.90;;
61471;SDS011;47337;54.068;12.114;2023-02-03T09:06:48;12.98;;;3.13;;
61471;SDS011;47337;54.068;12.114;2023-02-03T09:09:14;27.63;;;4.57;;
61471;SDS011;47337;54.068;12.114;2023-02-03T09:11:41;27.63;;;5.05;;
61471;SDS011;47337;54.068;12.114;2023-02-03T09:14:10;28.42;;;4.85;;
61471;SDS011;47337;54.068;12.114;2023-02-03T09:16:35;24.05;;;4.47;;
61471;SDS011;47337;54.068;12.114;2023-02-03T09:19:03;34.92;;;5.13;;
61471;SDS011;47337;54.068;12.114;2023-02-03T09:21:29;30.95;;;6.15;;
61471;SDS011;47337;54.068;12.114;2023-02-03T09:23:54;27.60;;;5.05;;
61471;SDS011;47337;54.068;12.114;2023-02-03T09:26:20;30.90;;;5.63;;
61471;SDS011;47337;54.068;12.114;2023-02-03T09:28:47;33.65;;;6.85;;
61471;SDS011;47337;54.068;12.114;2023-02-03T09:31:14;23.95;;;4.95;;
61471;SDS011;47337;54.068;12.114;2023-02-03T09:33:43;26.27;;;5.43;;
61471;SDS011;47337;54.068;12.114;2023-02-03T09:36:10;31.30;;;6.38;;
61471;SDS011;47337;54.068;12.114;2023-02-03T09:38:36;31.92;;;4.82;;
61471;SDS011;47337;54.068;12.114;2023-02-03T09:41:05;34.90;;;6.65;;
61471;SDS011;47337;54.068;12.114;2023-02-03T09:48:59;42.05;;;5.90;;
61471;SDS011;47337;54.068;12.114;2023-02-03T09:51:35;34.85;;;5.68;;
61471;SDS011;47337;54.068;12.114;2023-02-03T09:56:43;34.33;;;5.85;;
61471;SDS011;47337;54.068;12.114;2023-02-03T09:59:14;31.52;;;5.28;;
61471;SDS011;47337;54.068;12.114;2023-02-03T10:01:43;31.23;;;5.90;;
61471;SDS011;47337;54.068;12.114;2023-02-03T10:07:18;44.60;;;7.15;;
61471;SDS011;47337;54.068;12.114;2023-02-03T10:10:06;39.97;;;6.80;;
61471;SDS011;47337;54.068;12.114;2023-02-03T10:12:53;27.55;;;6.55;;
61471;SDS011;47337;54.068;12.114;2023-02-03T10:15:39;42.45;;;7.68;;
61471;SDS011;47337;54.068;12.114;2023-02-03T10:18:32;39.00;;;6.32;;
61471;SDS011;47337;54.068;12.114;2023-02-03T10:21:11;27.73;;;5.82;;
61471;SDS011;47337;54.068;12.114;2023-02-03T10:23:42;38.13;;;7.88;;
61471;SDS011;47337;54.068;12.114;2023-02-03T10:26:27;27.95;;;5.47;;
61471;SDS011;47337;54.068;12.114;2023-02-03T10:28:54;30.65;;;6.38;;
61471;SDS011;47337;54.068;12.114;2023-02-03T10:31:22;25.90;;;6.10;;
61471;SDS011;47337;54.068;12.114;2023-02-03T10:33:57;33.88;;;6.15;;
61471;SDS011;47337;54.068;12.114;2023-02-03T10:36:30;32.50;;;5.85;;
61471;SDS011;47337;54.068;12.114;2023-02-03T10:42:04;30.25;;;5.70;;
61471;SDS011;47337;54.068;12.114;2023-02-03T10:44:34;25.80;;;6.05;;
61471;SDS011;47337;54.068;12.114;2023-02-03T10:49:54;24.95;;;6.13;;
61471;SDS011;47337;54.068;12.114;2023-02-03T10:52:29;28.17;;;5.03;;
61471;SDS011;47337;54.068;12.114;2023-02-03T10:54:57;27.25;;;5.57;;
61471;SDS011;47337;54.068;12.114;2023-02-03T10:57:23;31.63;;;5.53;;
61471;SDS011;47337;54.068;12.114;2023-02-03T10:59:49;20.83;;;4.70;;
61471;SDS011;47337;54.068;12.114;2023-02-03T11:02:26;28.48;;;5.30;;
61471;SDS011;47337;54.068;12.114;2023-02-03T11:05:10;30.48;;;5.70;;
61471;SDS011;47337;54.068;12.114;2023-02-03T11:07:44;22.33;;;4.55;;
61471;SDS011;47337;54.068;12.114;2023-02-03T11:13:16;18.77;;;3.47;;
61471;SDS011;47337;54.068;12.114;2023-02-03T11:18:24;16.40;;;3.45;;
61471;SDS011;47337;54.068;12.114;2023-02-03T11:21:06;16.25;;;4.03;;
61471;SDS011;47337;54.068;12.114;2023-02-03T11:23:36;15.77;;;3.50;;
61471;SDS011;47337;54.068;12.114;2023-02-03T11:26:11;19.35;;;3.35;;
61471;SDS011;47337;54.068;12.114;2023-02-03T11:28:41;19.43;;;3.30;;
61471;SDS011;47337;54.068;12.114;2023-02-03T11:31:14;18.67;;;3.53;;
61471;SDS011;47337;54.068;12.114;2023-02-03T11:33:45;19.85;;;3.97;;
61471;SDS011;47337;54.068;12.114;2023-02-03T11:36:12;30.77;;;4.15;;
61471;SDS011;47337;54.068;12.114;2023-02-03T11:38:38;21.85;;;3.63;;
61471;SDS011;47337;54.068;12.114;2023-02-03T11:41:08;28.13;;;4.18;;
61471;SDS011;47337;54.068;12.114;2023-02-03T11:43:39;22.48;;;4.80;;
61471;SDS011;47337;54.068;12.114;2023-02-03T11:46:05;30.45;;;5.70;;
61471;SDS011;47337;54.068;12.114;2023-02-03T11:59:35;25.55;;;4.97;;
61471;SDS011;47337;54.068;12.114;2023-02-03T12:10:40;29.30;;;5.22;;
61471;SDS011;47337;54.068;12.114;2023-02-03T12:21:44;32.03;;;5.28;;
61471;SDS011;47337;54.068;12.114;2023-02-03T12:27:15;32.00;;;5.53;;
61471;SDS011;47337;54.068;12.114;2023-02-03T12:29:59;30.73;;;6.05;;
61471;SDS011;47337;54.068;12.114;2023-02-03T12:32:36;30.05;;;5.40;;
61471;SDS011;47337;54.068;12.114;2023-02-03T12:42:55;21.10;;;4.53;;
61471;SDS011;47337;54.068;12.114;2023-02-03T12:45:31;29.52;;;5.78;;
61471;SDS011;47337;54.068;12.114;2023-02-03T12:48:01;36.03;;;5.30;;
61471;SDS011;47337;54.068;12.114;2023-02-03T12:50:35;33.00;;;6.18;;
61471;SDS011;47337;54.068;12.114;2023-02-03T12:53:16;27.77;;;4.70;;
61471;SDS011;47337;54.068;12.114;2023-02-03T12:56:19;25.08;;;4.68;;
61471;SDS011;47337;54.068;12.114;2023-02-03T12:58:53;24.77;;;4.00;;
61471;SDS011;47337;54.068;12.114;2023-02-03T13:09:28;28.85;;;5.85;;
61471;SDS011;47337;54.068;12.114;2023-02-03T13:11:58;24.42;;;5.00;;
61471;SDS011;47337;54.068;12.114;2023-02-03T13:20:05;42.67;;;6.13;;
61471;SDS011;47337;54.068;12.114;2023-02-03T13:22:45;31.38;;;5.63;;
61471;SDS011;47337;54.068;12.114;2023-02-03T13:28:13;25.90;;;5.65;;
61471;SDS011;47337;54.068;12.114;2023-02-03T13:42:22;31.30;;;5.80;;
61471;SDS011;47337;54.068;12.114;2023-02-03T13:44:56;33.70;;;6.07;;
61471;SDS011;47337;54.068;12.114;2023-02-03T13:47:31;36.88;;;5.38;;
61471;SDS011;47337;54.068;12.114;2023-02-03T13:49:58;28.67;;;5.85;;
61471;SDS011;47337;54.068;12.114;2023-02-03T13:57:57;33.85;;;6.13;;
61471;SDS011;47337;54.068;12.114;2023-02-03T14:05:56;32.13;;;7.07;;
61471;SDS011;47337;54.068;12.114;2023-02-03T14:21:54;37.30;;;8.35;;
61471;SDS011;47337;54.068;12.114;2023-02-03T14:24:33;43.97;;;7.32;;
61471;SDS011;47337;54.068;12.114;2023-02-03T14:26:59;36.10;;;7.53;;
61471;SDS011;47337;54.068;12.114;2023-02-03T14:29:30;30.33;;;4.93;;
61471;SDS011;47337;54.068;12.114;2023-02-03T14:37:11;39.90;;;8.20;;
61471;SDS011;47337;54.068;12.114;2023-02-03T14:45:34;40.03;;;5.78;;
61471;SDS011;47337;54.068;12.114;2023-02-03T14:59:28;30.25;;;6.90;;
61471;SDS011;47337;54.068;12.114;2023-02-03T15:04:30;36.50;;;6.53;;
61471;SDS011;47337;54.068;12.114;2023-02-03T15:06:55;30.23;;;6.15;;
61471;SDS011;47337;54.068;12.114;2023-02-03T15:09:27;46.95;;;7.40;;
61471;SDS011;47337;54.068;12.114;2023-02-03T15:11:57;38.30;;;7.10;;
61471;SDS011;47337;54.068;12.114;2023-02-03T15:14:24;36.00;;;7.18;;
61471;SDS011;47337;54.068;12.114;2023-02-03T15:19:25;36.03;;;7.50;;
61471;SDS011;47337;54.068;12.114;2023-02-03T15:21:57;27.02;;;7.10;;
61471;SDS011;47337;54.068;12.114;2023-02-03T15:24:23;28.35;;;5.85;;
61471;SDS011;47337;54.068;12.114;2023-02-03T15:26:58;31.10;;;5.80;;
61471;SDS011;47337;54.068;12.114;2023-02-03T15:29:30;44.53;;;8.07;;
61471;SDS011;47337;54.068;12.114;2023-02-03T15:37:07;30.70;;;6.38;;
61471;SDS011;47337;54.068;12.114;2023-02-03T15:39:52;48.17;;;7.35;;
61471;SDS011;47337;54.068;12.114;2023-02-03T15:45:19;37.65;;;6.55;;
61471;SDS011;47337;54.068;12.114;2023-02-03T15:47:53;27.08;;;5.53;;
61471;SDS011;47337;54.068;12.114;2023-02-03T15:50:27;29.05;;;5.63;;
61471;SDS011;47337;54.068;12.114;2023-02-03T15:52:58;33.60;;;6.32;;
61471;SDS011;47337;54.068;12.114;2023-02-03T15:55:45;30.30;;;5.65;;
61471;SDS011;47337;54.068;12.114;2023-02-03T15:58:39;38.40;;;6.38;;
61471;SDS011;47337;54.068;12.114;2023-02-03T16:01:08;29.73;;;5.90;;
61471;SDS011;47337;54.068;12.114;2023-02-03T16:03:40;37.10;;;5.93;;
61471;SDS011;47337;54.068;12.114;2023-02-03T16:08:47;35.83;;;7.20;;
61471;SDS011;47337;54.068;12.114;2023-02-03T16:14:00;29.73;;;5.45;;
61471;SDS011;47337;54.068;12.114;2023-02-03T16:19:29;29.27;;;5.57;;
61471;SDS011;47337;54.068;12.114;2023-02-03T16:22:04;32.47;;;6.47;;
61471;SDS011;47337;54.068;12.114;2023-02-03T16:24:53;34.70;;;5.63;;
61471;SDS011;47337;54.068;12.114;2023-02-03T16:32:57;25.65;;;6.07;;
61471;SDS011;47337;54.068;12.114;2023-02-03T16:35:55;26.45;;;5.75;;
61471;SDS011;47337;54.068;12.114;2023-02-03T16:38:47;38.05;;;6.32;;
61471;SDS011;47337;54.068;12.114;2023-02-03T16:41:32;24.30;;;5.55;;
61471;SDS011;47337;54.068;12.114;2023-02-03T16:44:18;29.83;;;4.68;;
61471;SDS011;47337;54.068;12.114;2023-02-03T16:47:02;27.77;;;5.75;;
61471;SDS011;47337;54.068;12.114;2023-02-03T16:49:58;25.38;;;4.90;;
61471;SDS011;47337;54.068;12.114;2023-02-03T16:52:42;18.92;;;5.03;;
61471;SDS011;47337;54.068;12.114;2023-02-03T16:55:08;27.35;;;5.03;;
61471;SDS011;47337;54.068;12.114;2023-02-03T16:57:35;19.92;;;5.28;;
61471;SDS011;47337;54.068;12.114;2023-02-03T17:00:00;27.98;;;4.63;;
61471;SDS011;47337;54.068;12.114;2023-02-03T17:02:26;22.10;;;4.47;;
61471;SDS011;47337;54.068;12.114;2023-02-03T17:04:51;16.48;;;4.40;;
61471;SDS011;47337;54.068;12.114;2023-02-03T17:07:21;30.05;;;4.97;;
61471;SDS011;47337;54.068;12.114;2023-02-03T17:09:47;23.98;;;5.20;;
61471;SDS011;47337;54.068;12.114;2023-02-03T17:12:12;24.75;;;4.65;;
61471;SDS011;47337;54.068;12.114;2023-02-03T17:14:37;27.13;;;4.45;;
61471;SDS011;47337;54.068;12.114;2023-02-03T17:17:03;28.00;;;5.32;;
61471;SDS011;47337;54.068;12.114;2023-02-03T17:19:31;25.73;;;3.67;;
61471;SDS011;47337;54.068;12.114;2023-02-03T17:21:57;19.13;;;3.72;;
61471;SDS011;47337;54.068;12.114;2023-02-03T17:24:24;22.48;;;4.50;;
61471;SDS011;47337;54.068;12.114;2023-02-03T17:26:50;34.72;;;4.70;;
61471;SDS011;47337;54.068;12.114;2023-02-03T17:29:16;21.25;;;5.53;;
61471;SDS011;47337;54.068;12.114;2023-02-03T17:31:42;21.95;;;4.03;;
61471;SDS011;47337;54.068;12.114;2023-02-03T17:34:09;22.30;;;4.85;;
61471;SDS011;47337;54.068;12.114;2023-02-03T17:36:35;36.97;;;4.95;;
61471;SDS011;47337;54.068;12.114;2023-02-03T17:39:00;25.98;;;4.57;;
61471;SDS011;47337;54.068;12.114;2023-02-03T17:41:25;33.05;;;5.00;;
61471;SDS011;47337;54.068;12.114;2023-02-03T17:43:53;24.20;;;4.63;;
61471;SDS011;47337;54.068;12.114;2023-02-03T17:46:20;21.77;;;4.05;;